createdAt,value
2022-08-20T00:00:19.179Z,30.90
2022-08-20T00:02:48.439Z,30.80
2022-08-20T00:05:16.673Z,30.80
2022-08-20T00:07:44.789Z,30.70
2022-08-20T00:10:14.228Z,30.70
2022-08-20T00:12:44.830Z,30.70
2022-08-20T00:15:13.578Z,30.70
2022-08-20T00:28:19.147Z,30.70
2022-08-20T00:30:47.159Z,30.70
2022-08-20T00:33:16.327Z,30.60
2022-08-20T00:35:46.908Z,30.50
2022-08-20T00:38:15.015Z,30.50
2022-08-20T00:40:46.245Z,30.50
2022-08-20T00:43:31.231Z,30.50
2022-08-20T00:45:59.257Z,30.50
2022-08-20T00:48:28.061Z,30.50
2022-08-20T00:50:56.901Z,30.50
2022-08-20T00:53:25.166Z,30.50
2022-08-20T00:55:53.323Z,30.40
2022-08-20T00:58:21.481Z,30.40
2022-08-20T01:00:51.003Z,30.40
2022-08-20T01:03:20.414Z,30.40
2022-08-20T01:05:50.018Z,30.40
2022-08-20T01:08:19.746Z,30.40
2022-08-20T01:10:49.828Z,30.30
2022-08-20T01:13:20.558Z,30.30
2022-08-20T01:15:51.798Z,30.30
2022-08-20T01:18:23.052Z,30.30
2022-08-20T01:20:52.729Z,30.30
2022-08-20T01:23:30.246Z,30.30
2022-08-20T01:26:04.289Z,30.20
2022-08-20T01:28:36.503Z,30.20
2022-08-20T01:31:05.019Z,30.20
2022-08-20T01:33:33.246Z,30.20
2022-08-20T01:36:01.894Z,30.10
2022-08-20T01:38:30.313Z,30.10
2022-08-20T01:41:39.939Z,30.10
2022-08-20T01:44:09.192Z,30.00
2022-08-20T01:46:46.410Z,30.10
2022-08-20T01:49:22.927Z,30.00
2022-08-20T01:51:52.076Z,30.00
2022-08-20T01:54:20.167Z,30.00
2022-08-20T01:57:01.647Z,30.00
2022-08-20T01:59:29.960Z,29.90
2022-08-20T02:01:58.146Z,29.90
2022-08-20T02:04:27.106Z,29.90
2022-08-20T02:06:57.725Z,29.90
2022-08-20T02:09:26.946Z,29.90
2022-08-20T02:11:56.709Z,29.90
2022-08-20T02:14:24.977Z,29.90
2022-08-20T02:16:55.946Z,29.90
2022-08-20T02:19:27.574Z,29.90
2022-08-20T02:21:57.149Z,29.80
2022-08-20T02:24:25.256Z,29.80
2022-08-20T02:26:53.470Z,29.80
2022-08-20T02:29:23.850Z,29.80
2022-08-20T02:32:32.537Z,29.80
2022-08-20T02:34:42.362Z,29.70
2022-08-20T02:37:10.659Z,29.70
2022-08-20T02:39:38.728Z,29.70
2022-08-20T02:42:07.180Z,29.70
2022-08-20T02:44:36.994Z,29.70
2022-08-20T02:47:05.428Z,29.70
2022-08-20T02:49:33.560Z,29.60
2022-08-20T02:52:01.728Z,29.60
2022-08-20T02:54:32.219Z,29.60
2022-08-20T02:57:00.279Z,29.60
2022-08-20T02:59:28.406Z,29.50
2022-08-20T03:02:00.770Z,29.50
2022-08-20T03:04:29.430Z,29.50
2022-08-20T03:06:57.674Z,29.50
2022-08-20T03:09:25.764Z,29.50
2022-08-20T03:11:54.471Z,29.50
2022-08-20T03:14:25.410Z,29.40
2022-08-20T03:16:53.506Z,29.40
2022-08-20T03:19:23.055Z,29.40
2022-08-20T03:21:51.302Z,29.40
2022-08-20T03:24:19.438Z,29.40
2022-08-20T03:26:47.533Z,29.30
2022-08-20T03:29:15.620Z,29.30
2022-08-20T03:31:43.587Z,29.30
2022-08-20T03:34:11.941Z,29.20
2022-08-20T03:36:41.527Z,29.30
2022-08-20T03:39:13.211Z,29.30
2022-08-20T03:41:41.218Z,29.30
2022-08-20T03:44:10.229Z,29.30
2022-08-20T03:46:39.049Z,29.30
2022-08-20T03:49:07.258Z,29.20
2022-08-20T03:51:58.147Z,29.20
2022-08-20T03:54:24.808Z,29.20
2022-08-20T03:56:59.583Z,29.20
2022-08-20T03:59:27.574Z,29.20
2022-08-20T04:01:55.574Z,29.10
2022-08-20T04:04:23.467Z,29.10
2022-08-20T04:06:51.584Z,29.10
2022-08-20T04:09:19.609Z,29.10
2022-08-20T04:11:49.279Z,29.00
2022-08-20T04:14:19.581Z,29.10
2022-08-20T04:16:49.071Z,29.00
2022-08-20T04:19:17.451Z,29.00
2022-08-20T04:21:48.629Z,29.00
2022-08-20T04:24:24.506Z,29.00
2022-08-20T04:27:02.829Z,28.90
2022-08-20T04:29:32.240Z,28.90
2022-08-20T04:32:02.799Z,28.90
2022-08-20T04:34:34.389Z,28.90
2022-08-20T04:37:02.405Z,28.90
2022-08-20T04:39:30.760Z,28.90
2022-08-20T04:41:58.844Z,28.80
2022-08-20T04:44:28.855Z,28.90
2022-08-20T04:46:56.945Z,28.90
2022-08-20T04:49:26.478Z,28.80
2022-08-20T04:51:54.849Z,28.80
2022-08-20T04:54:22.858Z,28.80
2022-08-20T04:56:50.875Z,28.80
2022-08-20T04:59:18.923Z,28.80
2022-08-20T05:01:48.509Z,28.80
2022-08-20T05:04:16.505Z,28.80
2022-08-20T05:06:44.897Z,28.80
2022-08-20T05:09:12.877Z,28.80
2022-08-20T05:11:40.813Z,28.70
2022-08-20T05:14:09.876Z,28.80
2022-08-20T05:16:41.140Z,28.70
2022-08-20T05:19:11.913Z,28.70
2022-08-20T05:21:39.941Z,28.80
2022-08-20T05:24:08.183Z,28.80
2022-08-20T05:26:36.267Z,28.80
2022-08-20T05:29:06.901Z,28.70
2022-08-20T05:31:35.270Z,28.70
2022-08-20T05:34:03.649Z,28.70
2022-08-20T05:36:33.245Z,28.80
2022-08-20T05:39:01.255Z,28.80
2022-08-20T05:41:30.595Z,28.70
2022-08-20T05:44:01.387Z,28.70
2022-08-20T05:46:31.550Z,28.80
2022-08-20T05:49:00.292Z,28.70
2022-08-20T05:51:29.013Z,28.80
2022-08-20T05:53:59.472Z,28.70
2022-08-20T05:56:30.852Z,28.80
2022-08-20T05:59:00.737Z,28.80
2022-08-20T06:01:29.030Z,28.80
2022-08-20T06:04:14.882Z,28.80
2022-08-20T06:06:45.008Z,28.80
2022-08-20T06:09:16.251Z,28.80
2022-08-20T06:11:44.557Z,28.90
2022-08-20T06:14:12.623Z,28.90
2022-08-20T06:16:57.232Z,28.90
2022-08-20T06:19:26.470Z,28.90
2022-08-20T06:21:56.611Z,28.90
2022-08-20T06:24:27.050Z,28.90
2022-08-20T06:26:57.378Z,29.00
2022-08-20T06:29:25.385Z,29.00
2022-08-20T06:31:53.338Z,29.10
2022-08-20T06:34:21.580Z,29.10
2022-08-20T06:36:49.701Z,29.10
2022-08-20T06:39:17.875Z,29.00
2022-08-20T06:41:47.448Z,29.00
2022-08-20T06:44:16.532Z,29.10
2022-08-20T06:46:44.769Z,29.10
2022-08-20T06:49:14.181Z,29.20
2022-08-20T06:51:42.171Z,29.30
2022-08-20T06:54:10.224Z,29.30
2022-08-20T06:56:38.251Z,29.40
2022-08-20T06:59:07.909Z,29.50
2022-08-20T07:01:35.997Z,29.50
2022-08-20T07:04:05.612Z,29.60
2022-08-20T07:06:33.785Z,29.60
2022-08-20T07:09:01.767Z,29.70
2022-08-20T07:11:29.838Z,29.70
2022-08-20T07:13:58.413Z,29.80
2022-08-20T07:16:28.053Z,29.80
2022-08-20T07:18:56.209Z,29.90
2022-08-20T07:21:27.157Z,29.90
2022-08-20T07:23:55.275Z,30.00
2022-08-20T07:26:23.305Z,30.00
2022-08-20T07:28:51.378Z,30.10
2022-08-20T07:31:36.922Z,30.20
2022-08-20T07:34:06.535Z,30.20
2022-08-20T07:36:34.886Z,30.30
2022-08-20T07:39:05.825Z,30.30
2022-08-20T07:41:34.471Z,30.40
2022-08-20T07:44:02.586Z,30.50
2022-08-20T07:46:31.722Z,30.50
2022-08-20T07:48:59.885Z,30.70
2022-08-20T07:51:29.616Z,30.90
2022-08-20T07:54:00.220Z,30.90
2022-08-20T07:56:28.516Z,31.10
2022-08-20T07:59:03.513Z,31.20
2022-08-20T08:01:32.402Z,31.30
2022-08-20T08:04:01.021Z,31.40
2022-08-20T08:06:31.492Z,31.50
2022-08-20T08:09:03.487Z,31.60
2022-08-20T08:11:33.281Z,31.60
2022-08-20T08:14:01.310Z,31.70
2022-08-20T08:16:31.097Z,31.90
2022-08-20T08:18:59.943Z,32.00
2022-08-20T08:21:28.462Z,32.00
2022-08-20T08:23:58.383Z,32.20
2022-08-20T08:26:28.941Z,32.20
2022-08-20T08:28:58.276Z,32.20
2022-08-20T08:31:28.322Z,32.20
2022-08-20T08:33:56.441Z,32.30
2022-08-20T08:36:27.417Z,32.40
2022-08-20T08:38:57.047Z,32.40
2022-08-20T08:41:31.357Z,32.40
2022-08-20T08:44:04.606Z,32.40
2022-08-20T08:46:32.430Z,32.40
2022-08-20T08:49:01.673Z,32.60
2022-08-20T08:51:31.599Z,32.60
2022-08-20T08:54:04.738Z,32.70
2022-08-20T08:56:34.554Z,32.80
2022-08-20T08:59:04.095Z,32.90
2022-08-20T09:01:56.258Z,33.10
2022-08-20T09:04:22.033Z,33.20
2022-08-20T09:06:52.327Z,33.40
2022-08-20T09:09:24.290Z,33.50
2022-08-20T09:11:54.009Z,33.80
2022-08-20T09:14:22.944Z,34.10
2022-08-20T09:16:52.761Z,34.30
2022-08-20T09:19:21.589Z,34.50
2022-08-20T09:21:49.539Z,34.70
2022-08-20T09:24:17.946Z,34.90
2022-08-20T09:26:47.435Z,35.00
2022-08-20T09:29:15.585Z,35.10
2022-08-20T09:31:45.185Z,35.20
2022-08-20T09:34:14.621Z,35.20
2022-08-20T09:36:42.678Z,35.30
2022-08-20T09:39:12.597Z,35.20
2022-08-20T09:41:41.357Z,35.20
2022-08-20T09:44:10.959Z,35.40
2022-08-20T09:46:38.897Z,35.30
2022-08-20T09:49:06.916Z,35.30
2022-08-20T09:51:38.389Z,35.40
2022-08-20T09:54:06.873Z,35.80
2022-08-20T09:56:34.861Z,36.00
2022-08-20T09:59:03.146Z,36.20
2022-08-20T10:01:33.284Z,36.50
2022-08-20T10:04:01.362Z,36.70
2022-08-20T10:06:29.336Z,37.00
2022-08-20T10:08:57.272Z,37.40
2022-08-20T10:11:25.299Z,37.60
2022-08-20T10:13:53.353Z,37.90
2022-08-20T10:16:21.441Z,38.20
2022-08-20T10:18:50.989Z,38.30
2022-08-20T10:21:18.881Z,38.40
2022-08-20T10:23:46.873Z,38.50
2022-08-20T10:26:15.269Z,38.50
2022-08-20T10:28:43.363Z,38.50
2022-08-20T10:31:12.139Z,38.60
2022-08-20T10:33:41.014Z,38.80
2022-08-20T10:36:10.952Z,38.90
2022-08-20T10:38:39.116Z,38.90
2022-08-20T10:41:07.386Z,39.00
2022-08-20T10:43:35.481Z,39.20
2022-08-20T10:46:03.502Z,39.30
2022-08-20T10:48:31.415Z,39.50
2022-08-20T10:50:59.475Z,39.70
2022-08-20T10:53:29.099Z,39.80
2022-08-20T10:55:57.661Z,40.10
2022-08-20T10:58:25.712Z,40.10
2022-08-20T11:00:53.840Z,40.40
2022-08-20T11:03:21.809Z,40.60
2022-08-20T11:05:49.738Z,40.70
2022-08-20T11:08:33.578Z,40.90
2022-08-20T11:11:04.010Z,41.10
2022-08-20T11:13:32.064Z,41.40
2022-08-20T11:15:59.913Z,41.80
2022-08-20T11:18:27.694Z,42.20
2022-08-20T11:20:55.623Z,42.50
2022-08-20T11:23:23.557Z,42.80
2022-08-20T11:25:51.699Z,42.70
2022-08-20T11:28:31.248Z,43.10
2022-08-20T11:31:00.276Z,43.00
2022-08-20T11:33:28.324Z,43.00
2022-08-20T11:35:56.276Z,43.60
2022-08-20T11:38:24.201Z,43.60
2022-08-20T11:40:52.176Z,43.90
2022-08-20T11:43:21.599Z,44.70
2022-08-20T11:45:51.661Z,44.40
2022-08-20T11:48:19.808Z,45.20
2022-08-20T11:50:47.765Z,46.70
2022-08-20T11:53:15.712Z,47.80
2022-08-20T11:55:43.681Z,48.20
2022-08-20T11:58:11.851Z,47.30
2022-08-20T12:00:40.956Z,46.20
2022-08-20T12:03:10.165Z,46.90
2022-08-20T12:05:38.510Z,46.60
2022-08-20T12:08:06.547Z,46.20
2022-08-20T12:10:34.709Z,46.70
2022-08-20T12:13:04.713Z,47.60
2022-08-20T12:15:33.215Z,47.60
2022-08-20T12:18:03.424Z,47.60
2022-08-20T12:20:31.467Z,46.90
2022-08-20T12:22:59.917Z,47.90
2022-08-20T12:25:27.953Z,49.40
2022-08-20T12:27:56.456Z,50.40
2022-08-20T12:30:25.215Z,51.30
2022-08-20T12:32:53.287Z,52.00
2022-08-20T12:35:22.788Z,52.50
2022-08-20T12:37:50.593Z,53.30
2022-08-20T12:40:30.608Z,53.80
2022-08-20T12:43:00.967Z,53.80
2022-08-20T12:45:28.772Z,53.40
2022-08-20T12:48:01.188Z,51.60
2022-08-20T12:50:31.874Z,49.90
2022-08-20T12:53:00.364Z,48.50
2022-08-20T12:55:28.476Z,47.50
2022-08-20T12:57:57.380Z,46.70
2022-08-20T13:00:27.070Z,46.00
2022-08-20T13:02:56.238Z,45.30
2022-08-20T13:05:24.221Z,45.80
2022-08-20T13:07:53.990Z,47.40
2022-08-20T13:10:23.057Z,47.90
2022-08-20T13:12:51.121Z,46.80
2022-08-20T13:15:19.389Z,45.90
2022-08-20T13:17:47.356Z,45.20
2022-08-20T13:20:16.607Z,45.00
2022-08-20T13:22:44.671Z,44.40
2022-08-20T13:25:14.155Z,44.20
2022-08-20T13:27:42.134Z,44.50
2022-08-20T13:30:11.092Z,44.60
2022-08-20T13:32:39.064Z,44.60
2022-08-20T13:35:07.573Z,44.20
2022-08-20T13:37:35.692Z,44.10
2022-08-20T13:40:05.065Z,44.10
2022-08-20T13:42:34.630Z,44.60
2022-08-20T13:45:02.626Z,45.80
2022-08-20T13:47:32.473Z,46.80
2022-08-20T13:50:03.798Z,47.30
2022-08-20T13:52:31.985Z,48.10
2022-08-20T13:54:59.700Z,48.50
2022-08-20T13:57:27.747Z,48.70
2022-08-20T13:59:58.218Z,48.50
2022-08-20T14:02:26.073Z,49.10
2022-08-20T14:04:53.957Z,48.80
2022-08-20T14:07:23.487Z,47.70
2022-08-20T14:09:53.978Z,46.60
2022-08-20T14:12:23.196Z,45.80
2022-08-20T14:14:51.278Z,45.20
2022-08-20T14:17:21.933Z,44.50
2022-08-20T14:19:50.088Z,44.10
2022-08-20T14:22:18.722Z,43.80
2022-08-20T14:24:49.183Z,44.00
2022-08-20T14:27:17.788Z,44.20
2022-08-20T14:29:46.049Z,44.40
2022-08-20T14:32:14.168Z,44.60
2022-08-20T14:34:43.856Z,44.80
2022-08-20T14:37:13.555Z,44.80
2022-08-20T14:39:41.693Z,44.60
2022-08-20T14:42:09.796Z,44.40
2022-08-20T14:44:37.876Z,44.40
2022-08-20T14:47:13.700Z,44.40
2022-08-20T14:49:42.999Z,44.40
2022-08-20T14:52:10.891Z,44.10
2022-08-20T14:54:38.743Z,43.60
2022-08-20T14:57:12.833Z,43.30
2022-08-20T14:59:41.112Z,43.30
2022-08-20T15:02:10.897Z,43.00
2022-08-20T15:04:38.982Z,43.00
2022-08-20T15:07:16.356Z,43.00
2022-08-20T15:09:44.293Z,43.00
2022-08-20T15:12:12.180Z,43.00
2022-08-20T15:14:40.023Z,42.90
2022-08-20T15:17:08.669Z,42.80
2022-08-20T15:19:36.875Z,42.70
2022-08-20T15:22:04.779Z,42.50
2022-08-20T15:24:34.184Z,42.30
2022-08-20T15:27:12.645Z,42.20
2022-08-20T15:29:40.645Z,42.00
2022-08-20T15:32:08.869Z,41.80
2022-08-20T15:34:36.949Z,41.50
2022-08-20T15:37:09.136Z,41.40
2022-08-20T15:39:38.573Z,41.20
2022-08-20T15:42:07.045Z,41.10
2022-08-20T15:44:35.285Z,41.00
2022-08-20T15:47:20.402Z,40.80
2022-08-20T15:49:48.470Z,40.70
2022-08-20T15:52:16.613Z,40.60
2022-08-20T15:54:46.218Z,40.50
2022-08-20T15:57:15.503Z,40.30
2022-08-20T15:59:58.990Z,40.20
2022-08-20T16:02:45.206Z,40.10
2022-08-20T16:05:19.212Z,40.00
2022-08-20T16:07:54.683Z,39.80
2022-08-20T16:10:27.510Z,39.60
2022-08-20T16:12:58.042Z,39.40
2022-08-20T16:15:30.729Z,39.20
2022-08-20T16:18:02.351Z,39.10
2022-08-20T16:20:35.364Z,38.90
2022-08-20T16:23:04.046Z,38.80
2022-08-20T16:25:38.757Z,38.60
2022-08-20T16:28:11.503Z,38.50
2022-08-20T16:30:40.769Z,38.40
2022-08-20T16:33:12.261Z,38.30
2022-08-20T16:35:46.318Z,38.20
2022-08-20T16:38:21.029Z,38.10
2022-08-20T16:40:52.554Z,38.00
2022-08-20T16:43:23.203Z,37.90
2022-08-20T16:45:53.245Z,37.80
2022-08-20T16:48:21.388Z,37.70
2022-08-20T16:50:56.859Z,37.60
2022-08-20T16:53:25.601Z,37.50
2022-08-20T16:55:55.191Z,37.40
2022-08-20T16:58:23.112Z,37.30
2022-08-20T17:00:52.158Z,37.20
2022-08-20T17:03:33.562Z,37.20
2022-08-20T17:06:16.167Z,37.10
2022-08-20T17:08:50.020Z,37.00
2022-08-20T17:11:24.949Z,37.00
2022-08-20T17:14:06.859Z,36.90
2022-08-20T17:16:35.892Z,36.70
2022-08-20T17:19:09.859Z,36.60
2022-08-20T17:21:38.372Z,36.60
2022-08-20T17:24:17.041Z,36.50
2022-08-20T17:26:47.698Z,36.50
2022-08-20T17:29:16.941Z,36.40
2022-08-20T17:31:46.033Z,36.40
2022-08-20T17:34:17.996Z,36.30
2022-08-20T17:36:54.558Z,36.20
2022-08-20T17:39:22.994Z,36.10
2022-08-20T17:41:54.716Z,36.00
2022-08-20T17:44:24.589Z,36.00
2022-08-20T17:46:53.721Z,35.90
2022-08-20T17:49:26.940Z,35.80
2022-08-20T17:51:55.386Z,35.70
2022-08-20T17:54:27.129Z,35.60
2022-08-20T17:56:57.336Z,35.60
2022-08-20T17:59:36.370Z,35.50
2022-08-20T18:02:17.024Z,35.40
2022-08-20T18:04:45.245Z,35.40
2022-08-20T18:07:16.612Z,35.30
2022-08-20T18:09:46.897Z,35.20
2022-08-20T18:12:24.261Z,35.10
2022-08-20T18:15:07.063Z,35.00
2022-08-20T18:17:54.671Z,35.00
2022-08-20T18:20:35.588Z,34.90
2022-08-20T18:23:06.871Z,34.80
2022-08-20T18:25:36.586Z,34.70
2022-08-20T18:28:08.504Z,34.70
2022-08-20T18:30:36.418Z,34.60
2022-08-20T18:33:07.503Z,34.60
2022-08-20T18:35:37.581Z,34.50
2022-08-20T18:38:13.737Z,34.40
2022-08-20T18:40:41.702Z,34.40
2022-08-20T18:43:14.935Z,34.30
2022-08-20T18:45:42.937Z,34.20
2022-08-20T18:48:21.478Z,34.20
2022-08-20T18:50:50.722Z,34.10
2022-08-20T18:53:20.860Z,34.00
2022-08-20T18:55:49.337Z,34.00
2022-08-20T18:58:31.432Z,33.90
2022-08-20T19:00:59.416Z,33.90
2022-08-20T19:03:30.425Z,33.80
2022-08-20T19:06:14.245Z,33.70
2022-08-20T19:08:46.195Z,33.60
2022-08-20T19:11:46.545Z,33.60
2022-08-20T19:14:34.053Z,33.50
2022-08-20T19:17:05.341Z,33.40
2022-08-20T19:19:33.338Z,33.40
2022-08-20T19:22:01.704Z,33.30
2022-08-20T19:24:31.015Z,33.30
2022-08-20T19:27:01.233Z,33.20
2022-08-20T19:29:32.059Z,33.10
2022-08-20T19:32:00.993Z,33.10
2022-08-20T19:34:29.360Z,33.00
2022-08-20T19:36:59.129Z,33.00
2022-08-20T19:39:37.380Z,32.90
2022-08-20T19:42:06.607Z,32.90
2022-08-20T19:44:38.266Z,32.80
2022-08-20T19:47:06.749Z,32.80
2022-08-20T19:49:42.880Z,32.70
2022-08-20T19:52:21.593Z,32.60
2022-08-20T19:54:50.616Z,32.60
2022-08-20T19:57:18.989Z,32.50
2022-08-20T19:59:55.362Z,32.40
2022-08-20T20:02:24.077Z,32.40
2022-08-20T20:04:54.837Z,32.40
2022-08-20T20:07:25.531Z,32.30
2022-08-20T20:09:54.499Z,32.30
2022-08-20T20:12:23.197Z,32.20
2022-08-20T20:14:53.395Z,32.20
2022-08-20T20:17:23.309Z,32.10
2022-08-20T20:19:53.506Z,32.10
2022-08-20T20:22:26.036Z,32.00
2022-08-20T20:25:01.530Z,32.00
2022-08-20T20:27:32.114Z,31.90
2022-08-20T20:30:02.251Z,31.90
2022-08-20T20:32:30.410Z,31.80
2022-08-20T20:34:59.397Z,31.80
2022-08-20T20:37:50.520Z,31.70
2022-08-20T20:40:24.323Z,31.70
2022-08-20T20:42:59.309Z,31.60
2022-08-20T20:45:32.097Z,31.60
2022-08-20T20:48:00.208Z,31.60
2022-08-20T20:50:32.713Z,31.50
2022-08-20T20:53:00.822Z,31.50
2022-08-20T20:55:29.752Z,31.40
2022-08-20T20:57:57.858Z,31.40
2022-08-20T21:00:28.663Z,31.30
2022-08-20T21:02:58.386Z,31.30
2022-08-20T21:05:30.641Z,31.20
2022-08-20T21:08:01.203Z,31.20
2022-08-20T21:10:32.255Z,31.20
2022-08-20T21:13:00.849Z,31.10
2022-08-20T21:15:28.757Z,31.10
2022-08-20T21:17:59.357Z,31.10
2022-08-20T21:20:27.803Z,31.00
2022-08-20T21:22:57.427Z,31.00
2022-08-20T21:25:25.884Z,31.00
2022-08-20T21:27:54.894Z,30.90
2022-08-20T21:30:23.767Z,30.90
2022-08-20T21:32:51.968Z,30.90
2022-08-20T21:35:21.548Z,30.80
2022-08-20T21:37:49.534Z,30.80
2022-08-20T21:40:18.179Z,30.70
2022-08-20T21:42:50.183Z,30.70
2022-08-20T21:45:19.776Z,30.70
2022-08-20T21:47:48.698Z,30.60
2022-08-20T21:50:18.786Z,30.60
2022-08-20T21:52:55.167Z,30.50
2022-08-20T21:55:27.964Z,30.50
2022-08-20T21:57:56.073Z,30.50
2022-08-20T22:00:48.569Z,30.50
2022-08-20T22:03:16.838Z,30.40
2022-08-20T22:05:48.348Z,30.40
2022-08-20T22:08:18.127Z,30.30
2022-08-20T22:10:46.680Z,30.20
2022-08-20T22:13:17.790Z,30.20
2022-08-20T22:15:56.231Z,30.20
2022-08-20T22:18:27.476Z,30.20
2022-08-20T22:20:56.074Z,30.10
2022-08-20T22:23:25.715Z,30.10
2022-08-20T22:25:54.136Z,30.10
2022-08-20T22:28:28.938Z,30.00
2022-08-20T22:30:57.090Z,30.00
2022-08-20T22:33:25.209Z,30.00
2022-08-20T22:35:54.602Z,29.90
2022-08-20T22:38:22.588Z,29.90
2022-08-20T22:40:52.937Z,29.80
2022-08-20T22:43:21.334Z,29.80
2022-08-20T22:45:50.248Z,29.70
2022-08-20T22:48:19.328Z,29.70
2022-08-20T22:50:47.396Z,29.70
2022-08-20T22:53:15.476Z,29.60
2022-08-20T22:55:43.490Z,29.60
2022-08-20T22:58:13.019Z,29.50
2022-08-20T23:00:41.013Z,29.50
2022-08-20T23:03:09.045Z,29.50
2022-08-20T23:05:37.523Z,29.50
2022-08-20T23:08:05.673Z,29.40
2022-08-20T23:10:33.949Z,29.40
2022-08-20T23:13:02.038Z,29.40
2022-08-20T23:15:31.356Z,29.40
2022-08-20T23:18:03.654Z,29.30
2022-08-20T23:20:34.790Z,29.30
2022-08-20T23:23:02.725Z,29.30
2022-08-20T23:25:30.542Z,29.20
2022-08-20T23:28:03.502Z,29.20
2022-08-20T23:30:34.012Z,29.10
2022-08-20T23:33:02.310Z,29.10
2022-08-20T23:35:32.964Z,29.10
2022-08-20T23:38:01.363Z,29.10
2022-08-20T23:40:29.877Z,29.00
2022-08-20T23:42:58.179Z,29.00
2022-08-20T23:45:26.471Z,29.00
2022-08-20T23:47:56.094Z,28.90
2022-08-20T23:50:26.350Z,28.90
2022-08-20T23:52:54.463Z,28.90
2022-08-20T23:55:23.351Z,28.80
2022-08-20T23:57:51.796Z,28.90
